createdAt,value
2018-08-06T00:00:10.476Z,17.79
2018-08-06T00:01:10.458Z,17.79
2018-08-06T00:02:10.445Z,17.89
2018-08-06T00:03:10.430Z,17.89
2018-08-06T00:04:10.432Z,17.72
2018-08-06T00:05:10.413Z,17.86
2018-08-06T00:06:10.385Z,17.81
2018-08-06T00:07:10.372Z,17.87
2018-08-06T00:08:10.356Z,17.79
2018-08-06T00:09:10.343Z,17.78
2018-08-06T00:10:10.335Z,17.77
2018-08-06T00:11:10.312Z,17.79
2018-08-06T00:12:10.294Z,17.79
2018-08-06T00:13:10.283Z,17.81
2018-08-06T00:14:10.270Z,17.77
2018-08-06T00:15:10.266Z,17.82
2018-08-06T00:16:10.238Z,17.74
2018-08-06T00:17:10.223Z,17.79
2018-08-06T00:18:10.204Z,17.77
2018-08-06T00:19:10.195Z,17.66
2018-08-06T00:20:10.195Z,17.62
2018-08-06T00:21:10.163Z,17.64
2018-08-06T00:22:10.146Z,17.51
2018-08-06T00:23:10.137Z,17.56
2018-08-06T00:24:10.121Z,17.56
2018-08-06T00:25:10.103Z,17.51
2018-08-06T00:26:10.098Z,17.46
2018-08-06T00:27:10.074Z,17.48
2018-08-06T00:28:10.064Z,17.63
2018-08-06T00:29:10.043Z,17.68
2018-08-06T00:30:10.055Z,17.55
2018-08-06T00:31:10.012Z,17.56
2018-08-06T00:32:09.998Z,17.55
2018-08-06T00:33:09.981Z,17.55
2018-08-06T00:34:09.968Z,17.62
2018-08-06T00:35:09.952Z,17.66
2018-08-06T00:36:09.961Z,17.72
2018-08-06T00:37:09.922Z,17.79
2018-08-06T00:38:09.913Z,17.66
2018-08-06T00:39:09.986Z,17.68
2018-08-06T00:40:09.874Z,17.63
2018-08-06T00:41:09.871Z,17.49
2018-08-06T00:42:09.850Z,17.41
2018-08-06T00:43:09.828Z,17.49
2018-08-06T00:44:09.845Z,17.38
2018-08-06T00:45:09.966Z,17.51
2018-08-06T00:46:10.531Z,17.48
2018-08-06T00:47:10.546Z,17.55
2018-08-06T00:48:09.791Z,17.52
2018-08-06T00:49:09.759Z,17.48
2018-08-06T00:50:09.737Z,17.52
2018-08-06T00:51:09.720Z,17.46
2018-08-06T00:52:09.698Z,17.43
2018-08-06T00:53:09.695Z,17.40
2018-08-06T00:54:09.672Z,17.43
2018-08-06T00:55:09.664Z,17.40
2018-08-06T00:56:09.647Z,17.46
2018-08-06T00:57:09.634Z,17.51
2018-08-06T00:58:09.618Z,17.46
2018-08-06T00:59:09.600Z,17.36
2018-08-06T01:00:10.492Z,17.37
2018-08-06T01:01:09.725Z,17.26
2018-08-06T01:02:09.544Z,17.34
2018-08-06T01:03:09.538Z,17.33
2018-08-06T01:04:09.513Z,17.38
2018-08-06T01:05:09.504Z,17.31
2018-08-06T01:06:09.484Z,17.22
2018-08-06T01:07:09.478Z,17.21
2018-08-06T01:08:09.453Z,17.30
2018-08-06T01:09:09.995Z,17.31
2018-08-06T01:10:09.997Z,17.21
2018-08-06T01:11:09.406Z,17.28
2018-08-06T01:12:09.422Z,17.26
2018-08-06T01:13:09.382Z,17.25
2018-08-06T01:14:09.375Z,17.18
2018-08-06T01:15:09.416Z,17.23
2018-08-06T01:16:09.336Z,17.25
2018-08-06T01:17:09.315Z,17.33
2018-08-06T01:18:09.480Z,17.33
2018-08-06T01:19:09.285Z,17.34
2018-08-06T01:20:09.278Z,17.31
2018-08-06T01:21:09.272Z,17.25
2018-08-06T01:22:09.242Z,17.33
2018-08-06T01:23:09.228Z,17.26
2018-08-06T01:24:09.224Z,17.26
2018-08-06T01:25:09.205Z,17.34
2018-08-06T01:26:09.196Z,17.21
2018-08-06T01:27:09.179Z,17.38
2018-08-06T01:28:09.159Z,17.41
2018-08-06T01:29:09.157Z,17.25
2018-08-06T01:30:09.152Z,17.22
2018-08-06T01:31:09.136Z,17.16
2018-08-06T01:32:09.998Z,17.11
2018-08-06T01:33:09.074Z,17.15
2018-08-06T01:34:09.054Z,17.19
2018-08-06T01:35:09.043Z,17.11
2018-08-06T01:36:09.030Z,17.12
2018-08-06T01:37:09.042Z,17.12
2018-08-06T01:38:09.005Z,17.16
2018-08-06T01:39:08.977Z,17.11
2018-08-06T01:40:08.966Z,17.06
2018-08-06T01:41:08.948Z,17.00
2018-08-06T01:42:08.945Z,17.00
2018-08-06T01:43:08.916Z,17.12
2018-08-06T01:44:08.912Z,17.12
2018-08-06T01:45:08.888Z,17.08
2018-08-06T01:46:08.887Z,17.06
2018-08-06T01:47:08.874Z,16.97
2018-08-06T01:48:08.853Z,17.04
2018-08-06T01:49:08.830Z,16.96
2018-08-06T01:50:08.812Z,16.96
2018-08-06T01:51:08.795Z,16.88
2018-08-06T01:52:08.806Z,16.83
2018-08-06T01:53:08.763Z,16.75
2018-08-06T01:54:08.767Z,16.71
2018-08-06T01:55:08.734Z,16.58
2018-08-06T01:56:08.727Z,16.67
2018-08-06T01:57:08.722Z,16.70
2018-08-06T01:58:08.695Z,16.61
2018-08-06T01:59:08.693Z,16.57
2018-08-06T02:00:08.699Z,16.49
2018-08-06T02:01:08.663Z,16.49
2018-08-06T02:02:08.625Z,16.63
2018-08-06T02:03:08.625Z,16.60
2018-08-06T02:04:08.594Z,16.57
2018-08-06T02:05:08.576Z,16.66
2018-08-06T02:06:08.647Z,16.61
2018-08-06T02:07:08.553Z,16.63
2018-08-06T02:08:08.554Z,16.58
2018-08-06T02:09:08.517Z,16.66
2018-08-06T02:10:08.502Z,16.57
2018-08-06T02:11:08.489Z,16.58
2018-08-06T02:12:08.472Z,16.49
2018-08-06T02:13:08.484Z,16.43
2018-08-06T02:14:08.445Z,16.45
2018-08-06T02:15:08.426Z,16.46
2018-08-06T02:16:08.476Z,16.46
2018-08-06T02:17:08.464Z,16.50
2018-08-06T02:18:08.395Z,16.52
2018-08-06T02:19:08.444Z,16.57
2018-08-06T02:20:08.364Z,16.64
2018-08-06T02:21:08.361Z,16.66
2018-08-06T02:22:08.427Z,16.64
2018-08-06T02:23:08.402Z,16.58
2018-08-06T02:24:08.303Z,16.70
2018-08-06T02:25:08.268Z,16.68
2018-08-06T02:26:08.247Z,16.63
2018-08-06T02:27:08.279Z,16.68
2018-08-06T02:28:08.215Z,16.71
2018-08-06T02:29:08.217Z,16.73
2018-08-06T02:30:08.186Z,16.71
2018-08-06T02:31:08.170Z,16.68
2018-08-06T02:32:08.157Z,16.58
2018-08-06T02:33:08.154Z,16.67
2018-08-06T02:34:08.124Z,16.68
2018-08-06T02:35:08.117Z,16.60
2018-08-06T02:36:08.107Z,16.56
2018-08-06T02:37:08.076Z,16.53
2018-08-06T02:38:08.071Z,16.48
2018-08-06T02:39:08.061Z,16.42
2018-08-06T02:40:08.040Z,16.50
2018-08-06T02:41:08.038Z,16.45
2018-08-06T02:42:08.019Z,16.42
2018-08-06T02:43:08.032Z,16.48
2018-08-06T02:44:07.985Z,16.41
2018-08-06T02:45:07.980Z,16.46
2018-08-06T02:46:07.946Z,16.52
2018-08-06T02:47:07.921Z,16.42
2018-08-06T02:48:07.899Z,16.49
2018-08-06T02:49:07.891Z,16.42
2018-08-06T02:50:07.894Z,16.38
2018-08-06T02:51:07.853Z,16.41
2018-08-06T02:52:07.850Z,16.53
2018-08-06T02:53:07.828Z,16.42
2018-08-06T02:54:07.811Z,16.43
2018-08-06T02:55:07.809Z,16.41
2018-08-06T02:56:07.782Z,16.41
2018-08-06T02:57:07.767Z,16.35
2018-08-06T02:58:07.744Z,16.42
2018-08-06T02:59:07.730Z,16.39
2018-08-06T03:00:07.753Z,16.33
2018-08-06T03:01:07.710Z,16.41
2018-08-06T03:02:07.682Z,16.30
2018-08-06T03:03:07.666Z,16.27
2018-08-06T03:04:07.651Z,16.21
2018-08-06T03:05:17.627Z,16.15
2018-08-06T03:06:07.615Z,16.15
2018-08-06T03:07:07.609Z,16.04
2018-08-06T03:08:07.585Z,16.08
2018-08-06T03:09:07.571Z,16.08
2018-08-06T03:10:07.585Z,16.12
2018-08-06T03:11:07.554Z,16.17
2018-08-06T03:12:07.522Z,16.27
2018-08-06T03:13:07.507Z,16.24
2018-08-06T03:14:07.489Z,16.33
2018-08-06T03:15:07.478Z,16.25
2018-08-06T03:16:07.474Z,16.20
2018-08-06T03:17:07.480Z,16.24
2018-08-06T03:18:07.425Z,16.24
2018-08-06T03:19:07.411Z,16.14
2018-08-06T03:20:07.394Z,16.20
2018-08-06T03:21:07.385Z,16.15
2018-08-06T03:22:07.375Z,16.11
2018-08-06T03:23:07.350Z,16.05
2018-08-06T03:24:07.338Z,15.94
2018-08-06T03:25:07.315Z,15.78
2018-08-06T03:26:07.303Z,15.78
2018-08-06T03:27:07.295Z,15.80
2018-08-06T03:28:07.267Z,15.68
2018-08-06T03:29:07.251Z,15.71
2018-08-06T03:30:07.246Z,15.74
2018-08-06T03:31:07.221Z,15.75
2018-08-06T03:32:07.214Z,15.75
2018-08-06T03:33:07.188Z,15.82
2018-08-06T03:34:07.173Z,15.83
2018-08-06T03:35:07.157Z,15.80
2018-08-06T03:36:07.140Z,15.74
2018-08-06T03:37:07.137Z,15.71
2018-08-06T03:38:07.107Z,15.67
2018-08-06T03:39:07.091Z,15.60
2018-08-06T03:40:07.085Z,15.54
2018-08-06T03:41:07.070Z,15.54
2018-08-06T03:42:07.180Z,15.53
2018-08-06T03:43:07.028Z,15.50
2018-08-06T03:44:07.016Z,15.46
2018-08-06T03:45:06.997Z,15.47
2018-08-06T03:46:06.978Z,15.57
2018-08-06T03:47:06.962Z,15.56
2018-08-06T03:48:06.961Z,15.68
2018-08-06T03:49:06.933Z,15.80
2018-08-06T03:50:06.917Z,15.87
2018-08-06T03:51:06.899Z,15.93
2018-08-06T03:52:06.884Z,15.96
2018-08-06T03:53:06.885Z,15.80
2018-08-06T03:54:06.851Z,15.80
2018-08-06T03:55:06.835Z,15.75
2018-08-06T03:56:06.819Z,15.64
2018-08-06T03:57:06.805Z,15.59
2018-08-06T03:58:06.786Z,15.51
2018-08-06T03:59:06.781Z,15.49
2018-08-06T04:00:06.761Z,15.35
2018-08-06T04:01:06.736Z,15.27
2018-08-06T04:02:06.719Z,15.36
2018-08-06T04:03:06.706Z,15.43
2018-08-06T04:04:06.700Z,15.38
2018-08-06T04:05:06.675Z,15.34
2018-08-06T04:06:06.657Z,15.36
2018-08-06T04:07:06.644Z,15.35
2018-08-06T04:08:06.625Z,15.34
2018-08-06T04:09:06.617Z,15.35
2018-08-06T04:10:06.591Z,15.39
2018-08-06T04:11:06.576Z,15.49
2018-08-06T04:12:06.558Z,15.50
2018-08-06T04:13:06.547Z,15.53
2018-08-06T04:14:06.542Z,15.53
2018-08-06T04:15:06.511Z,15.50
2018-08-06T04:16:06.494Z,15.56
2018-08-06T04:17:06.479Z,15.56
2018-08-06T04:18:06.462Z,15.69
2018-08-06T04:19:06.449Z,15.71
2018-08-06T04:20:17.172Z,15.72
2018-08-06T04:21:06.417Z,15.76
2018-08-06T04:22:06.401Z,15.71
2018-08-06T04:23:06.397Z,15.78
2018-08-06T04:24:06.363Z,15.78
2018-08-06T04:25:06.361Z,15.71
2018-08-06T04:26:06.331Z,15.72
2018-08-06T04:27:06.316Z,15.75
2018-08-06T04:28:06.302Z,15.69
2018-08-06T04:29:06.284Z,15.78
2018-08-06T04:30:06.282Z,15.72
2018-08-06T04:31:06.250Z,15.67
2018-08-06T04:32:06.235Z,15.60
2018-08-06T04:33:06.234Z,15.51
2018-08-06T04:34:06.204Z,15.54
2018-08-06T04:35:06.197Z,15.67
2018-08-06T04:36:06.168Z,15.56
2018-08-06T04:37:06.153Z,15.65
2018-08-06T04:38:14.701Z,15.65
2018-08-06T04:39:06.122Z,15.72
2018-08-06T04:40:06.112Z,15.65
2018-08-06T04:41:06.090Z,15.60
2018-08-06T04:42:06.072Z,15.71
2018-08-06T04:43:06.059Z,15.65
2018-08-06T04:44:06.039Z,15.60
2018-08-06T04:45:06.040Z,15.50
2018-08-06T04:46:06.075Z,15.60
2018-08-06T04:47:05.990Z,15.54
2018-08-06T04:48:05.995Z,15.57
2018-08-06T04:49:05.969Z,15.67
2018-08-06T04:50:05.955Z,15.72
2018-08-06T04:51:05.944Z,15.71
2018-08-06T04:52:05.962Z,15.71
2018-08-06T04:53:05.897Z,15.83
2018-08-06T04:54:05.878Z,15.82
2018-08-06T04:55:05.899Z,15.86
2018-08-06T04:56:05.847Z,15.90
2018-08-06T04:57:05.868Z,15.93
2018-08-06T04:58:05.836Z,16.01
2018-08-06T04:59:05.797Z,16.07
2018-08-06T05:00:05.793Z,16.12
2018-08-06T05:01:05.811Z,16.11
2018-08-06T05:02:05.757Z,16.08
2018-08-06T05:03:05.775Z,16.14
2018-08-06T05:04:05.736Z,16.14
2018-08-06T05:05:05.706Z,16.27
2018-08-06T05:06:05.714Z,16.21
2018-08-06T05:07:05.752Z,16.24
2018-08-06T05:08:05.697Z,16.38
2018-08-06T05:09:05.653Z,16.35
2018-08-06T05:10:05.647Z,16.43
2018-08-06T05:11:05.636Z,16.45
2018-08-06T05:12:05.613Z,16.46
2018-08-06T05:13:05.605Z,16.57
2018-08-06T05:14:05.619Z,16.68
2018-08-06T05:15:05.569Z,16.68
2018-08-06T05:16:05.624Z,16.81
2018-08-06T05:17:05.580Z,16.85
2018-08-06T05:18:05.523Z,16.89
2018-08-06T05:19:05.482Z,16.97
2018-08-06T05:20:05.464Z,17.03
2018-08-06T05:21:05.502Z,17.12
2018-08-06T05:22:05.434Z,17.14
2018-08-06T05:23:05.441Z,17.21
2018-08-06T05:24:05.426Z,17.28
2018-08-06T05:25:05.389Z,17.25
2018-08-06T05:26:05.447Z,17.37
2018-08-06T05:27:05.389Z,17.41
2018-08-06T05:28:05.345Z,17.46
2018-08-06T05:29:05.368Z,17.59
2018-08-06T05:30:05.356Z,17.63
2018-08-06T05:31:05.297Z,17.68
2018-08-06T05:32:05.296Z,17.71
2018-08-06T05:33:05.262Z,17.74
2018-08-06T05:34:05.275Z,17.89
2018-08-06T05:35:05.231Z,17.87
2018-08-06T05:36:05.220Z,17.97
2018-08-06T05:37:05.250Z,17.96
2018-08-06T05:38:05.195Z,18.02
2018-08-06T05:39:05.185Z,18.03
2018-08-06T05:40:05.232Z,18.02
2018-08-06T05:41:05.148Z,18.11
2018-08-06T05:42:05.129Z,18.05
2018-08-06T05:43:05.119Z,18.11
2018-08-06T05:44:05.086Z,18.21
2018-08-06T05:45:05.072Z,18.23
2018-08-06T05:46:05.643Z,18.33
2018-08-06T05:47:05.081Z,18.30
2018-08-06T05:48:05.029Z,18.29
2018-08-06T05:49:05.017Z,18.37
2018-08-06T05:50:04.998Z,18.37
2018-08-06T05:51:04.997Z,18.44
2018-08-06T05:52:04.969Z,18.41
2018-08-06T05:53:04.965Z,18.50
2018-08-06T05:54:04.932Z,18.50
2018-08-06T05:55:05.010Z,18.57
2018-08-06T05:56:04.915Z,18.63
2018-08-06T05:57:04.977Z,18.65
2018-08-06T05:58:04.894Z,18.76
2018-08-06T05:59:04.865Z,18.80
2018-08-06T06:00:04.887Z,19.43
2018-08-06T06:01:04.892Z,19.68
2018-08-06T06:02:04.835Z,19.86
2018-08-06T06:03:04.823Z,19.63
2018-08-06T06:04:04.796Z,19.47
2018-08-06T06:05:04.803Z,19.36
2018-08-06T06:06:04.803Z,19.31
2018-08-06T06:07:04.796Z,19.19
2018-08-06T06:08:04.724Z,19.28
2018-08-06T06:09:04.705Z,19.13
2018-08-06T06:10:04.694Z,19.19
2018-08-06T06:11:04.685Z,19.33
2018-08-06T06:12:04.698Z,19.56
2018-08-06T06:13:04.689Z,19.73
2018-08-06T06:14:04.677Z,19.86
2018-08-06T06:15:04.627Z,20.14
2018-08-06T06:16:04.612Z,20.74
2018-08-06T06:17:04.620Z,21.10
2018-08-06T06:18:04.603Z,20.69
2018-08-06T06:19:04.622Z,20.24
2018-08-06T06:20:04.557Z,20.02
2018-08-06T06:21:05.152Z,19.94
2018-08-06T06:22:04.556Z,19.94
2018-08-06T06:23:04.541Z,20.59
2018-08-06T06:24:04.528Z,21.31
2018-08-06T06:25:04.544Z,21.74
2018-08-06T06:26:04.458Z,22.17
2018-08-06T06:27:04.471Z,22.52
2018-08-06T06:28:04.438Z,22.75
2018-08-06T06:29:04.460Z,23.04
2018-08-06T06:30:12.758Z,23.36
2018-08-06T06:31:04.383Z,23.53
2018-08-06T06:32:04.381Z,23.95
2018-08-06T06:33:04.354Z,23.87
2018-08-06T06:34:04.341Z,23.66
2018-08-06T06:35:04.325Z,23.76
2018-08-06T06:36:04.308Z,23.35
2018-08-06T06:37:04.312Z,23.79
2018-08-06T06:38:04.287Z,24.34
2018-08-06T06:39:04.272Z,24.57
2018-08-06T06:40:04.264Z,24.37
2018-08-06T06:41:04.243Z,24.34
2018-08-06T06:42:04.237Z,25.03
2018-08-06T06:43:04.217Z,25.27
2018-08-06T06:44:04.199Z,24.96
2018-08-06T06:45:04.188Z,24.71
2018-08-06T06:46:04.176Z,24.35
2018-08-06T06:47:04.183Z,24.47
2018-08-06T06:48:04.151Z,24.83
2018-08-06T06:49:04.174Z,25.14
2018-08-06T06:50:04.177Z,24.95
2018-08-06T06:51:04.110Z,25.14
2018-08-06T06:52:04.117Z,25.15
2018-08-06T06:53:04.157Z,25.55
2018-08-06T06:54:04.158Z,25.20
2018-08-06T06:55:04.099Z,25.20
2018-08-06T06:56:04.066Z,25.03
2018-08-06T06:57:04.054Z,25.52
2018-08-06T06:58:04.055Z,26.02
2018-08-06T06:59:04.023Z,25.57
2018-08-06T07:00:04.093Z,25.54
2018-08-06T07:01:04.017Z,24.95
2018-08-06T07:02:04.010Z,25.55
2018-08-06T07:03:03.993Z,25.65
2018-08-06T07:04:03.967Z,25.80
2018-08-06T07:05:03.987Z,25.80
2018-08-06T07:06:03.989Z,25.70
2018-08-06T07:07:03.947Z,25.83
2018-08-06T07:08:03.962Z,25.91
2018-08-06T07:09:03.942Z,26.01
2018-08-06T07:10:03.900Z,25.72
2018-08-06T07:11:03.900Z,25.69
2018-08-06T07:12:03.857Z,26.18
2018-08-06T07:13:03.882Z,26.15
2018-08-06T07:14:03.935Z,26.44
2018-08-06T07:15:03.845Z,27.21
2018-08-06T07:16:03.826Z,27.22
2018-08-06T07:17:03.801Z,27.06
2018-08-06T07:18:03.824Z,27.66
2018-08-06T07:19:03.866Z,27.10
2018-08-06T07:20:03.772Z,26.40
2018-08-06T07:21:03.759Z,26.44
2018-08-06T07:22:03.732Z,26.87
2018-08-06T07:23:03.715Z,27.19
2018-08-06T07:24:03.724Z,27.41
2018-08-06T07:25:03.711Z,27.25
2018-08-06T07:26:03.755Z,26.72
2018-08-06T07:27:03.670Z,25.70
2018-08-06T07:28:03.703Z,25.06
2018-08-06T07:29:03.710Z,24.68
2018-08-06T07:30:03.701Z,24.49
2018-08-06T07:31:03.629Z,24.46
2018-08-06T07:32:03.660Z,24.21
2018-08-06T07:33:03.636Z,24.03
2018-08-06T07:34:03.631Z,23.90
2018-08-06T07:35:03.622Z,23.93
2018-08-06T07:36:03.573Z,24.03
2018-08-06T07:37:03.593Z,24.08
2018-08-06T07:38:03.575Z,24.09
2018-08-06T07:39:03.539Z,24.03
2018-08-06T07:40:03.591Z,24.02
2018-08-06T07:41:03.551Z,24.09
2018-08-06T07:42:03.503Z,24.15
2018-08-06T07:43:03.523Z,24.24
2018-08-06T07:44:03.507Z,24.22
2018-08-06T07:45:03.498Z,24.12
2018-08-06T07:46:03.467Z,24.18
2018-08-06T07:47:03.478Z,24.35
2018-08-06T07:48:03.434Z,24.35
2018-08-06T07:49:03.440Z,24.47
2018-08-06T07:50:03.451Z,24.53
2018-08-06T07:51:03.444Z,24.45
2018-08-06T07:52:03.384Z,24.52
2018-08-06T07:53:03.414Z,24.57
2018-08-06T07:54:03.359Z,24.58
2018-08-06T07:55:03.411Z,24.77
2018-08-06T07:56:03.362Z,24.83
2018-08-06T07:57:03.321Z,24.80
2018-08-06T07:58:03.328Z,24.87
2018-08-06T07:59:03.306Z,24.91
2018-08-06T08:00:03.315Z,24.96
2018-08-06T08:01:03.328Z,24.96
2018-08-06T08:02:03.275Z,25.08
2018-08-06T08:03:03.267Z,24.99
2018-08-06T08:04:03.249Z,25.06
2018-08-06T08:05:03.268Z,25.18
2018-08-06T08:06:03.248Z,25.30
2018-08-06T08:07:03.207Z,25.30
2018-08-06T08:08:03.208Z,25.39
2018-08-06T08:09:03.218Z,25.17
2018-08-06T08:10:03.203Z,25.30
2018-08-06T08:11:03.162Z,25.30
2018-08-06T08:12:03.249Z,25.28
2018-08-06T08:13:03.150Z,25.46
2018-08-06T08:14:03.172Z,25.58
2018-08-06T08:15:03.141Z,25.57
2018-08-06T08:16:03.139Z,25.65
2018-08-06T08:17:03.144Z,25.62
2018-08-06T08:18:03.079Z,25.67
2018-08-06T08:19:03.147Z,25.69
2018-08-06T08:20:03.123Z,25.67
2018-08-06T08:21:03.046Z,25.82
2018-08-06T08:22:03.044Z,25.76
2018-08-06T08:23:03.058Z,26.02
2018-08-06T08:24:03.005Z,26.30
2018-08-06T08:25:03.046Z,26.36
2018-08-06T08:26:02.986Z,26.43
2018-08-06T08:27:03.007Z,26.57
2018-08-06T08:28:03.030Z,26.52
2018-08-06T08:29:02.960Z,26.63
2018-08-06T08:30:02.983Z,26.63
2018-08-06T08:31:03.007Z,26.67
2018-08-06T08:32:02.915Z,26.75
2018-08-06T08:33:02.916Z,26.73
2018-08-06T08:34:03.001Z,26.70
2018-08-06T08:35:02.918Z,26.72
2018-08-06T08:36:02.893Z,26.80
2018-08-06T08:37:02.876Z,26.76
2018-08-06T08:38:02.922Z,26.88
2018-08-06T08:39:02.887Z,26.77
2018-08-06T08:40:02.835Z,26.84
2018-08-06T08:41:02.854Z,27.12
2018-08-06T08:42:02.863Z,27.06
2018-08-06T08:43:03.729Z,27.12
2018-08-06T08:44:02.847Z,27.10
2018-08-06T08:45:02.804Z,27.24
2018-08-06T08:46:02.794Z,27.31
2018-08-06T08:47:02.767Z,27.39
2018-08-06T08:48:02.762Z,27.46
2018-08-06T08:49:02.774Z,27.50
2018-08-06T08:50:02.769Z,27.41
2018-08-06T08:51:02.747Z,27.49
2018-08-06T08:52:02.729Z,27.66
2018-08-06T08:53:02.718Z,27.72
2018-08-06T08:54:02.688Z,27.79
2018-08-06T08:55:02.686Z,27.78
2018-08-06T08:56:02.691Z,27.79
2018-08-06T08:57:02.641Z,27.85
2018-08-06T08:58:02.628Z,27.88
2018-08-06T08:59:02.663Z,27.96
2018-08-06T09:00:02.611Z,28.06
2018-08-06T09:01:02.622Z,28.04
2018-08-06T09:02:02.612Z,28.00
2018-08-06T09:03:02.619Z,28.07
2018-08-06T09:04:02.579Z,28.15
2018-08-06T09:05:02.563Z,28.25
2018-08-06T09:06:02.548Z,28.15
2018-08-06T09:07:02.583Z,28.21
2018-08-06T09:08:02.564Z,28.33
2018-08-06T09:09:02.527Z,28.37
2018-08-06T09:10:02.522Z,28.43
2018-08-06T09:11:02.533Z,28.33
2018-08-06T09:12:02.515Z,28.40
2018-08-06T09:13:02.482Z,28.43
2018-08-06T09:14:02.485Z,28.48
2018-08-06T09:15:02.480Z,28.52
2018-08-06T09:16:02.457Z,28.61
2018-08-06T09:17:03.253Z,28.58
2018-08-06T09:18:02.470Z,28.68
2018-08-06T09:19:02.426Z,28.74
2018-08-06T09:20:02.431Z,28.88
2018-08-06T09:21:02.426Z,28.81
2018-08-06T09:22:02.422Z,28.86
2018-08-06T09:23:02.384Z,29.02
2018-08-06T09:24:02.427Z,28.92
2018-08-06T09:25:02.439Z,28.83
2018-08-06T09:26:02.373Z,28.86
2018-08-06T09:27:02.377Z,28.95
2018-08-06T09:28:02.368Z,29.02
2018-08-06T09:29:02.330Z,29.12
2018-08-06T09:30:02.338Z,29.08
2018-08-06T09:31:02.330Z,29.19
2018-08-06T09:32:02.302Z,29.39
2018-08-06T09:33:02.311Z,29.46
2018-08-06T09:34:02.338Z,29.55
2018-08-06T09:35:02.306Z,29.58
2018-08-06T09:36:02.287Z,29.67
2018-08-06T09:37:02.256Z,29.71
2018-08-06T09:38:02.255Z,29.80
2018-08-06T09:39:02.242Z,29.74
2018-08-06T09:40:02.220Z,29.70
2018-08-06T09:41:02.237Z,29.71
2018-08-06T09:42:02.215Z,29.74
2018-08-06T09:43:02.220Z,29.85
2018-08-06T09:44:02.178Z,30.04
2018-08-06T09:45:02.182Z,30.13
2018-08-06T09:46:02.210Z,30.01
2018-08-06T09:47:02.180Z,30.07
2018-08-06T09:48:02.163Z,30.19
2018-08-06T09:49:02.142Z,30.46
2018-08-06T09:50:02.117Z,30.38
2018-08-06T09:51:02.131Z,30.46
2018-08-06T09:52:02.128Z,30.55
2018-08-06T09:53:02.106Z,30.77
2018-08-06T09:54:02.084Z,30.76
2018-08-06T09:55:02.089Z,30.54
2018-08-06T09:56:02.062Z,30.65
2018-08-06T09:57:02.135Z,30.62
2018-08-06T09:58:02.077Z,30.51
2018-08-06T09:59:02.103Z,30.65
2018-08-06T10:00:02.036Z,30.54
2018-08-06T10:01:02.053Z,30.54
2018-08-06T10:02:02.030Z,30.80
2018-08-06T10:03:02.093Z,30.62
2018-08-06T10:04:02.013Z,30.72
2018-08-06T10:05:02.056Z,30.67
2018-08-06T10:06:02.864Z,30.73
2018-08-06T10:07:02.133Z,30.77
2018-08-06T10:08:01.980Z,30.58
2018-08-06T10:09:01.963Z,30.67
2018-08-06T10:10:01.945Z,30.62
2018-08-06T10:11:01.982Z,30.76
2018-08-06T10:12:02.064Z,30.80
2018-08-06T10:13:02.051Z,30.69
2018-08-06T10:14:01.955Z,30.77
2018-08-06T10:15:01.937Z,30.91
2018-08-06T10:16:01.910Z,30.60
2018-08-06T10:17:01.934Z,30.55
2018-08-06T10:18:02.088Z,30.47
2018-08-06T10:19:01.961Z,30.45
2018-08-06T10:20:01.893Z,30.42
2018-08-06T10:21:01.931Z,30.42
2018-08-06T10:22:01.877Z,30.60
2018-08-06T10:23:01.906Z,30.69
2018-08-06T10:24:01.866Z,30.73
2018-08-06T10:25:01.856Z,30.88
2018-08-06T10:26:01.857Z,30.89
2018-08-06T10:27:01.824Z,31.06
2018-08-06T10:28:01.796Z,31.06
2018-08-06T10:29:01.793Z,31.13
2018-08-06T10:30:01.819Z,31.14
2018-08-06T10:31:01.768Z,31.07
2018-08-06T10:32:01.784Z,31.20
2018-08-06T10:33:01.757Z,31.04
2018-08-06T10:34:01.751Z,30.97
2018-08-06T10:35:01.736Z,31.02
2018-08-06T10:36:01.756Z,31.20
2018-08-06T10:37:01.773Z,31.12
2018-08-06T10:38:01.720Z,31.14
2018-08-06T10:39:01.720Z,31.07
2018-08-06T10:40:02.269Z,31.12
2018-08-06T10:41:01.707Z,31.16
2018-08-06T10:42:01.693Z,31.14
2018-08-06T10:43:01.667Z,31.20
2018-08-06T10:44:01.690Z,31.34
2018-08-06T10:45:01.666Z,31.26
2018-08-06T10:46:01.693Z,31.46
2018-08-06T10:47:01.647Z,31.20
2018-08-06T10:48:01.652Z,31.02
2018-08-06T10:49:01.674Z,31.14
2018-08-06T10:50:01.610Z,31.25
2018-08-06T10:51:01.599Z,31.48
2018-08-06T10:52:01.599Z,31.50
2018-08-06T10:53:01.601Z,31.65
2018-08-06T10:54:01.684Z,31.70
2018-08-06T10:55:01.594Z,31.68
2018-08-06T10:56:01.597Z,31.84
2018-08-06T10:57:01.595Z,31.89
2018-08-06T10:58:01.568Z,32.19
2018-08-06T10:59:01.602Z,32.23
2018-08-06T11:00:01.567Z,32.26
2018-08-06T11:01:01.529Z,31.92
2018-08-06T11:02:01.543Z,31.93
2018-08-06T11:03:01.548Z,31.99
2018-08-06T11:04:01.541Z,31.91
2018-08-06T11:05:01.510Z,32.01
2018-08-06T11:06:01.531Z,31.96
2018-08-06T11:07:01.577Z,32.08
2018-08-06T11:08:01.499Z,32.06
2018-08-06T11:09:01.478Z,32.10
2018-08-06T11:10:01.472Z,32.29
2018-08-06T11:11:01.445Z,32.30
2018-08-06T11:12:01.443Z,32.47
2018-08-06T11:13:01.454Z,32.59
2018-08-06T11:14:01.454Z,32.79
2018-08-06T11:15:01.402Z,33.34
2018-08-06T11:16:01.427Z,33.66
2018-08-06T11:17:01.388Z,34.24
2018-08-06T11:18:01.370Z,34.78
2018-08-06T11:19:01.397Z,34.92
2018-08-06T11:20:01.368Z,35.21
2018-08-06T11:21:01.389Z,35.38
2018-08-06T11:22:01.350Z,35.52
2018-08-06T11:23:01.374Z,35.40
2018-08-06T11:24:01.344Z,34.89
2018-08-06T11:25:01.320Z,34.58
2018-08-06T11:26:01.323Z,34.44
2018-08-06T11:27:01.314Z,34.99
2018-08-06T11:28:01.322Z,35.44
2018-08-06T11:29:01.320Z,35.37
2018-08-06T11:30:01.323Z,35.55
2018-08-06T11:31:01.297Z,35.82
2018-08-06T11:32:01.281Z,35.38
2018-08-06T11:33:01.263Z,35.04
2018-08-06T11:34:01.251Z,35.07
2018-08-06T11:35:01.283Z,35.29
2018-08-06T11:36:01.237Z,35.10
2018-08-06T11:37:01.238Z,34.96
2018-08-06T11:38:01.238Z,35.74
2018-08-06T11:39:01.248Z,36.29
2018-08-06T11:40:01.263Z,36.68
2018-08-06T11:41:01.798Z,36.68
2018-08-06T11:42:01.271Z,36.88
2018-08-06T11:43:01.202Z,36.88
2018-08-06T11:44:01.233Z,37.22
2018-08-06T11:45:01.185Z,37.25
2018-08-06T11:46:01.172Z,37.28
2018-08-06T11:47:01.163Z,37.44
2018-08-06T11:48:01.145Z,37.40
2018-08-06T11:49:01.157Z,37.32
2018-08-06T11:50:01.164Z,37.69
2018-08-06T11:51:01.132Z,38.15
2018-08-06T11:52:01.147Z,38.19
2018-08-06T11:53:01.105Z,38.03
2018-08-06T11:54:01.111Z,38.42
2018-08-06T11:55:01.184Z,38.25
2018-08-06T11:56:01.212Z,38.38
2018-08-06T11:57:01.227Z,38.13
2018-08-06T11:58:01.145Z,37.81
2018-08-06T11:59:01.103Z,37.62
2018-08-06T12:00:01.137Z,37.21
2018-08-06T12:01:01.822Z,37.44
2018-08-06T12:02:01.111Z,37.47
2018-08-06T12:03:01.064Z,38.13
2018-08-06T12:04:01.045Z,37.20
2018-08-06T12:05:01.034Z,37.55
2018-08-06T12:06:01.048Z,37.91
2018-08-06T12:07:01.006Z,37.69
2018-08-06T12:08:11.385Z,37.29
2018-08-06T12:09:00.997Z,37.70
2018-08-06T12:10:00.983Z,37.89
2018-08-06T12:11:00.989Z,38.09
2018-08-06T12:12:00.969Z,37.67
2018-08-06T12:13:00.964Z,37.84
2018-08-06T12:14:00.952Z,37.44
2018-08-06T12:15:01.007Z,37.06
2018-08-06T12:16:00.956Z,37.78
2018-08-06T12:17:00.933Z,37.75
2018-08-06T12:18:00.925Z,37.86
2018-08-06T12:19:00.919Z,37.78
2018-08-06T12:20:00.913Z,37.76
2018-08-06T12:21:00.975Z,38.25
2018-08-06T12:22:00.903Z,38.66
2018-08-06T12:23:00.894Z,38.52
2018-08-06T12:24:00.890Z,38.88
2018-08-06T12:25:00.881Z,37.76
2018-08-06T12:26:00.934Z,37.46
2018-08-06T12:27:00.875Z,37.94
2018-08-06T12:28:00.864Z,37.55
2018-08-06T12:29:00.853Z,38.03
2018-08-06T12:30:00.844Z,37.86
2018-08-06T12:31:00.846Z,38.59
2018-08-06T12:32:00.844Z,38.30
2018-08-06T12:33:00.825Z,38.03
2018-08-06T12:34:00.818Z,38.66
2018-08-06T12:35:00.812Z,38.25
2018-08-06T12:36:00.803Z,38.18
2018-08-06T12:37:00.807Z,38.00
2018-08-06T12:38:00.843Z,38.66
2018-08-06T12:39:00.785Z,39.22
2018-08-06T12:40:00.781Z,38.26
2018-08-06T12:41:00.772Z,38.47
2018-08-06T12:42:00.780Z,38.47
2018-08-06T12:43:00.758Z,38.01
2018-08-06T12:44:00.752Z,38.11
2018-08-06T12:45:00.748Z,37.34
2018-08-06T12:46:00.739Z,38.09
2018-08-06T12:47:00.733Z,37.88
2018-08-06T12:48:00.737Z,38.49
2018-08-06T12:49:00.722Z,38.99
2018-08-06T12:50:00.715Z,38.98
2018-08-06T12:51:00.710Z,39.22
2018-08-06T12:52:00.701Z,39.75